Terminal Aerodrome Forecast
Issued by NWS Sioux Falls, SD

Home | Current Version | Previous Version | Graphics & Text | Print | Product List | Glossary On
Versions: 1 2 3 4 5 6 7 8 9 10 11 12 13 14 15 16 17
000
FTUS43 KFSD 140520
TAFSUX
TAF
KSUX 140520Z 1406/1506 05005KT P6SM FEW200
     FM140700 06005KT P6SM BKN020
     FM140900 06006KT P6SM OVC015
     FM141200 06005KT 6SM -SHRA OVC009
     FM142000 35003KT 6SM -SHRA OVC010
     FM150000 30012KT P6SM BKN015
     FM150400 32020G28KT P6SM BKN035=

USA.gov is the U.S. government's official web portal to all federal, state and local government web resources and services.